Time;durP1;ratioP1;P1;durP2;ratioP2;P2;SDS_P1;SDS_P2;PMS_P1;PMS_P2;Temp;Humidity;BMP_temperature;BMP_pressure;BME280_temperature;BME280_humidity;BME280_pressure;Samples;Min_cycle;Max_cycle;Signal;HPM_P1;HPM_P2
2022/03/28 00:00:41;;;;;;;4.60;1.60;;;;;;;2.10;100.00;98695.91;5151432;27;20050;-68
2022/03/28 00:03:08;;;;;;;3.50;1.60;;;;;;;2.07;100.00;98693.81;5151719;27;20047;-68
2022/03/28 00:05:34;;;;;;;3.75;1.52;;;;;;;2.02;100.00;98680.47;5151460;27;20050;-67
2022/03/28 00:08:01;;;;;;;3.53;1.75;;;;;;;1.97;100.00;98676.03;5150984;27;20470;-67
2022/03/28 00:10:27;;;;;;;2.63;1.77;;;;;;;1.93;100.00;98666.94;5151263;27;20126;-68
2022/03/28 00:12:53;;;;;;;3.35;1.90;;;;;;;1.99;100.00;98659.47;5151661;27;20409;-67
2022/03/28 00:15:20;;;;;;;4.53;1.50;;;;;;;1.92;100.00;98664.56;5151217;27;20058;-67
2022/03/28 00:17:47;;;;;;;4.72;2.10;;;;;;;1.98;100.00;98637.06;5151274;27;20579;-67
2022/03/28 00:20:14;;;;;;;4.07;2.08;;;;;;;1.97;100.00;98631.97;5151460;27;20047;-68
2022/03/28 00:22:41;;;;;;;3.55;2.38;;;;;;;1.88;100.00;98616.56;5151156;27;20043;-67
2022/03/28 00:25:10;;;;;;;5.63;2.20;;;;;;;1.86;100.00;98605.25;5151400;27;20054;-68
2022/03/28 00:27:37;;;;;;;3.33;1.85;;;;;;;1.74;100.00;98593.53;5151160;27;20046;-67
2022/03/28 00:30:04;;;;;;;7.05;1.77;;;;;;;1.67;100.00;98575.09;5151358;27;20057;-67
2022/03/28 00:32:30;;;;;;;4.20;1.90;;;;;;;1.68;100.00;98549.66;5151107;27;20110;-68
2022/03/28 00:34:58;;;;;;;6.63;2.50;;;;;;;1.74;100.00;98532.16;5151176;27;20050;-67
2022/03/28 00:37:24;;;;;;;5.32;1.90;;;;;;;1.72;100.00;98512.75;5151054;27;20042;-68
2022/03/28 00:39:50;;;;;;;5.30;2.10;;;;;;;1.66;100.00;98505.94;5151170;27;20050;-68
2022/03/28 00:42:17;;;;;;;5.97;2.00;;;;;;;1.71;100.00;98494.19;5151024;27;20051;-67
2022/03/28 00:44:44;;;;;;;5.07;2.35;;;;;;;1.75;100.00;98484.31;5150833;27;20047;-67
2022/03/28 00:47:10;;;;;;;5.93;2.20;;;;;;;1.73;100.00;98481.13;5151350;27;20094;-67
2022/03/28 00:49:37;;;;;;;3.42;2.38;;;;;;;1.75;100.00;98460.78;5151001;27;20051;-67
2022/03/28 00:52:05;;;;;;;4.22;1.70;;;;;;;1.74;100.00;98434.09;5151108;27;20057;-68
2022/03/28 00:54:31;;;;;;;4.88;2.15;;;;;;;1.74;100.00;98424.06;5150808;27;20048;-67
2022/03/28 00:56:57;;;;;;;10.27;2.42;;;;;;;1.79;100.00;98417.69;5151037;27;20046;-67
2022/03/28 00:59:24;;;;;;;6.05;2.15;;;;;;;1.73;100.00;98400.84;5150960;27;20501;-67
2022/03/28 01:01:50;;;;;;;7.57;2.08;;;;;;;1.67;100.00;98395.94;5150937;27;20050;-68
2022/03/28 01:04:16;;;;;;;6.28;2.15;;;;;;;1.77;100.00;98368.59;5150541;27;20047;-67
2022/03/28 01:06:44;;;;;;;6.55;2.22;;;;;;;1.69;100.00;98355.91;5150671;27;20051;-68
2022/03/28 01:09:10;;;;;;;3.30;1.80;;;;;;;1.56;100.00;98341.50;5150754;27;20049;-68
2022/03/28 01:11:37;;;;;;;11.30;2.75;;;;;;;1.53;100.00;98318.63;5150814;27;20047;-68
2022/03/28 01:14:04;;;;;;;3.40;2.35;;;;;;;1.46;100.00;98306.75;5150678;27;20428;-68
2022/03/28 01:18:05;;;;;;;6.97;2.10;;;;;;;1.43;100.00;98283.88;5150034;27;20051;-67
2022/03/28 01:19:18;;;;;;;6.15;2.40;;;;;;;1.38;100.00;98265.19;5150451;27;20058;-67
2022/03/28 01:21:45;;;;;;;5.18;2.25;;;;;;;1.31;100.00;98254.09;5154125;27;20049;-68
2022/03/28 01:24:11;;;;;;;7.85;2.20;;;;;;;1.30;100.00;98230.88;5154261;27;20075;-67
2022/03/28 01:26:38;;;;;;;2.47;1.95;;;;;;;1.29;100.00;98219.31;5153925;27;20051;-68
2022/03/28 01:29:05;;;;;;;3.65;2.17;;;;;;;1.26;100.00;98202.97;5153924;27;20054;-68
2022/03/28 01:31:31;;;;;;;8.35;2.20;;;;;;;1.26;100.00;98202.97;5154092;27;20118;-68
2022/03/28 01:33:57;;;;;;;4.57;2.28;;;;;;;1.30;100.00;98193.91;5153801;27;20055;-68
2022/03/28 01:36:24;;;;;;;4.43;2.20;;;;;;;1.30;100.00;98183.09;5153885;27;20057;-68
2022/03/28 01:38:51;;;;;;;3.15;2.03;;;;;;;1.39;100.00;98175.72;5153610;27;20118;-68
2022/03/28 01:41:17;;;;;;;11.63;2.30;;;;;;;1.42;100.00;98176.97;5154183;27;20053;-68
2022/03/28 01:43:43;;;;;;;4.43;2.42;;;;;;;1.45;100.00;98164.72;5153765;27;20042;-67
2022/03/28 01:46:10;;;;;;;4.25;2.50;;;;;;;1.45;100.00;98170.91;5153689;27;20047;-67
2022/03/28 01:48:36;;;;;;;6.97;2.40;;;;;;;1.51;100.00;98156.09;5153625;27;20051;-68
2022/03/28 01:51:02;;;;;;;3.25;2.45;;;;;;;1.58;100.00;98152.88;5153558;27;20090;-67
2022/03/28 01:53:29;;;;;;;3.30;2.05;;;;;;;1.55;100.00;98175.13;5153564;27;20428;-67
2022/03/28 01:55:55;;;;;;;7.68;2.05;;;;;;;1.53;100.00;98134.94;5153737;27;20053;-68
2022/03/28 01:58:22;;;;;;;4.85;2.30;;;;;;;1.54;100.00;98179.75;5153459;27;20138;-68
2022/03/28 02:00:48;;;;;;;3.65;2.22;;;;;;;1.64;100.00;98146.16;5153510;27;20463;-68
2022/03/28 02:03:14;;;;;;;5.03;2.35;;;;;;;1.69;100.00;98166.75;5153772;27;20053;-68
2022/03/28 02:05:40;;;;;;;5.05;2.88;;;;;;;1.78;100.00;98149.38;5153623;27;20047;-67
2022/03/28 02:08:08;;;;;;;6.18;2.63;;;;;;;1.91;100.00;98162.94;5153840;27;20049;-68
2022/03/28 02:10:34;;;;;;;2.58;1.90;;;;;;;1.91;100.00;98152.13;5153412;27;20425;-68
2022/03/28 02:13:01;;;;;;;4.30;2.30;;;;;;;1.95;100.00;98150.31;5153719;27;20448;-68
2022/03/28 02:15:27;;;;;;;4.97;2.22;;;;;;;1.95;100.00;98145.72;5152676;27;20534;-68
2022/03/28 02:17:53;;;;;;;4.03;2.35;;;;;;;1.97;100.00;98145.41;5153476;27;20095;-68
2022/03/28 02:20:20;;;;;;;2.90;1.92;;;;;;;1.87;100.00;98141.19;5152893;27;20054;-68
2022/03/28 02:22:46;;;;;;;7.55;3.30;;;;;;;1.92;100.00;98132.84;5153314;27;20046;-68
2022/03/28 02:25:15;;;;;;;4.00;2.28;;;;;;;1.97;100.00;98113.75;5153081;27;20424;-67
2022/03/28 02:27:42;;;;;;;9.40;2.67;;;;;;;1.85;100.00;98132.59;5153115;27;20042;-68
2022/03/28 02:30:11;;;;;;;7.30;2.63;;;;;;;1.86;100.00;98110.66;5152796;27;20412;-68
2022/03/28 02:32:37;;;;;;;6.95;2.47;;;;;;;1.84;100.00;98109.41;5153245;27;20129;-68
2022/03/28 02:35:06;;;;;;;6.35;2.25;;;;;;;1.81;100.00;98104.69;5153526;27;20139;-67
2022/03/28 02:37:32;;;;;;;5.53;2.20;;;;;;;1.82;100.00;98090.03;5153086;27;20125;-68
2022/03/28 02:39:58;;;;;;;6.90;2.45;;;;;;;1.76;100.00;98094.06;5153446;27;20059;-69
2022/03/28 02:42:25;;;;;;;4.93;2.33;;;;;;;1.78;100.00;98078.31;5152625;27;20051;-68
2022/03/28 02:44:51;;;;;;;4.53;1.98;;;;;;;1.68;100.00;98073.34;5153012;27;20077;-68
2022/03/28 02:47:19;;;;;;;3.80;2.15;;;;;;;1.68;100.00;98071.41;5152679;27;20086;-68
2022/03/28 02:49:45;;;;;;;4.05;2.20;;;;;;;1.70;100.00;98073.78;5152911;27;20077;-68
2022/03/28 02:52:11;;;;;;;3.67;2.03;;;;;;;1.71;100.00;98078.84;5152648;27;20043;-68
2022/03/28 02:54:38;;;;;;;9.63;2.50;;;;;;;1.67;100.00;98077.94;5152557;27;20047;-68
2022/03/28 02:57:04;;;;;;;10.75;2.20;;;;;;;1.66;100.00;98070.94;5152576;27;20402;-68
2022/03/28 02:59:31;;;;;;;4.38;2.20;;;;;;;1.72;100.00;98056.09;5152501;27;20125;-68
2022/03/28 03:01:57;;;;;;;4.82;2.05;;;;;;;1.70;100.00;98066.47;5152704;27;20057;-67
2022/03/28 03:04:25;;;;;;;17.55;2.45;;;;;;;1.75;100.00;98054.66;5152274;27;20095;-68
2022/03/28 03:06:52;;;;;;;9.20;2.60;;;;;;;1.75;100.00;98054.66;5152875;27;20047;-68
2022/03/28 03:09:18;;;;;;;4.18;2.58;;;;;;;1.78;100.00;98056.69;5152537;27;20086;-68
2022/03/28 03:11:44;;;;;;;6.63;1.88;;;;;;;1.85;100.00;98052.31;5152775;27;20133;-68
2022/03/28 03:14:10;;;;;;;5.10;2.00;;;;;;;1.81;100.00;98046.00;5152335;27;20049;-68
2022/03/28 03:16:36;;;;;;;3.80;2.03;;;;;;;1.83;100.00;98042.97;5152147;27;20054;-68
2022/03/28 03:19:03;;;;;;;14.52;2.35;;;;;;;1.77;100.00;98041.63;5152373;27;20382;-68
2022/03/28 03:21:30;;;;;;;7.57;3.67;;;;;;;1.76;100.00;98032.69;5152445;27;20046;-68
2022/03/28 03:23:56;;;;;;;7.80;2.70;;;;;;;1.74;100.00;98021.44;5152371;27;20046;-68
2022/03/28 03:26:23;;;;;;;4.80;1.92;;;;;;;1.72;100.00;98014.78;5152012;27;20050;-68
2022/03/28 03:28:49;;;;;;;7.10;2.33;;;;;;;1.70;100.00;98011.63;5152547;27;20055;-68
2022/03/28 03:31:15;;;;;;;5.30;2.22;;;;;;;1.67;100.00;97996.91;5152168;27;20053;-68
2022/03/28 03:33:41;;;;;;;7.25;2.65;;;;;;;1.66;100.00;97995.31;5152299;27;20053;-68
2022/03/28 03:36:08;;;;;;;8.90;1.98;;;;;;;1.61;100.00;97988.22;5152082;27;20053;-68
2022/03/28 03:38:35;;;;;;;9.05;2.38;;;;;;;1.61;100.00;97977.41;5152232;27;20076;-68
2022/03/28 03:41:01;;;;;;;8.68;1.77;;;;;;;1.55;100.00;97969.84;5151634;27;20053;-68
2022/03/28 03:43:28;;;;;;;8.88;2.03;;;;;;;1.52;100.00;97968.59;5151357;27;20047;-68
2022/03/28 03:45:54;;;;;;;6.93;1.88;;;;;;;1.46;100.00;97971.84;5151771;27;20057;-68
2022/03/28 03:48:20;;;;;;;4.25;2.00;;;;;;;1.44;100.00;97971.41;5151800;27;20047;-68
2022/03/28 03:50:46;;;;;;;9.18;2.03;;;;;;;1.50;100.00;97951.13;5151722;27;20535;-68
2022/03/28 03:53:13;;;;;;;12.20;2.22;;;;;;;1.52;100.00;97940.81;5151659;27;20141;-68
2022/03/28 03:55:40;;;;;;;6.40;2.40;;;;;;;1.55;100.00;97935.50;5151681;27;20052;-67
2022/03/28 03:58:06;;;;;;;9.35;2.08;;;;;;;1.55;100.00;97929.34;5151442;27;20047;-68
2022/03/28 04:00:33;;;;;;;6.28;2.13;;;;;;;1.59;100.00;97914.81;5151877;27;20420;-68
2022/03/28 04:02:59;;;;;;;12.10;2.50;;;;;;;1.60;100.00;97911.00;5151563;27;20100;-68
2022/03/28 04:05:25;;;;;;;4.47;2.15;;;;;;;1.66;100.00;97908.84;5151761;27;20065;-68
2022/03/28 04:07:51;;;;;;;11.38;2.60;;;;;;;1.68;100.00;97901.22;5151482;27;20054;-68
2022/03/28 04:10:18;;;;;;;9.50;2.45;;;;;;;1.68;100.00;97901.22;5151744;27;20055;-68
2022/03/28 04:12:44;;;;;;;3.70;2.28;;;;;;;1.80;100.00;97886.91;5151917;27;20070;-68
2022/03/28 04:15:11;;;;;;;11.02;2.80;;;;;;;1.79;100.00;97888.03;5151454;27;20068;-68
2022/03/28 04:17:42;;;;;;;8.50;2.50;;;;;;;1.89;100.00;97895.69;5151442;27;20054;-68
2022/03/28 04:20:11;;;;;;;5.45;2.33;;;;;;;1.93;100.00;97885.75;5151247;27;20109;-68
2022/03/28 04:22:39;;;;;;;5.32;2.58;;;;;;;2.05;100.00;97880.34;5151130;27;20059;-67
2022/03/28 04:25:06;;;;;;;4.55;2.58;;;;;;;2.15;100.00;97883.72;5151095;27;20487;-68
2022/03/28 04:27:33;;;;;;;4.15;2.53;;;;;;;2.31;100.00;97892.72;5151214;27;20564;-68
2022/03/28 04:30:00;;;;;;;5.53;2.50;;;;;;;2.52;100.00;97889.84;5151018;27;20119;-68
2022/03/28 04:32:26;;;;;;;10.45;2.85;;;;;;;2.82;100.00;97903.84;5151387;27;20409;-68
2022/03/28 04:34:53;;;;;;;7.40;2.28;;;;;;;3.39;100.00;97902.66;5151129;27;20053;-68
2022/03/28 04:37:19;;;;;;;10.05;3.03;;;;;;;4.28;100.00;97943.94;5151202;27;20047;-69
2022/03/28 04:39:45;;;;;;;10.15;2.80;;;;;;;5.10;100.00;98008.94;5150915;27;20097;-69
2022/03/28 04:42:11;;;;;;;10.93;3.08;;;;;;;5.75;100.00;98053.69;5150918;27;20053;-69
2022/03/28 04:44:38;;;;;;;13.95;3.63;;;;;;;6.48;100.00;98088.06;5150947;27;20051;-69
2022/03/28 04:47:05;;;;;;;10.88;2.80;;;;;;;6.95;100.00;98129.66;5150670;27;20505;-70
2022/03/28 04:49:32;;;;;;;7.75;2.78;;;;;;;7.19;100.00;98169.34;5150656;27;20057;-69
2022/03/28 04:51:58;;;;;;;9.60;2.65;;;;;;;6.87;100.00;98169.66;5150343;27;20050;-70
2022/03/28 04:54:24;;;;;;;7.90;2.63;;;;;;;6.48;100.00;98149.91;5151169;27;20050;-68
2022/03/28 04:56:51;;;;;;;8.15;3.10;;;;;;;6.47;100.00;98140.19;5154400;27;20046;-69
2022/03/28 04:59:17;;;;;;;7.15;3.00;;;;;;;6.34;100.00;98128.66;5154578;27;20054;-68
2022/03/28 05:01:43;;;;;;;4.72;2.85;;;;;;;5.97;100.00;98107.41;5154411;27;20057;-69
2022/03/28 05:04:10;;;;;;;10.38;3.15;;;;;;;5.76;100.00;98088.69;5154426;27;20043;-68
2022/03/28 05:06:37;;;;;;;5.97;2.67;;;;;;;5.53;100.00;98075.03;5154249;27;20046;-69
2022/03/28 05:09:03;;;;;;;9.15;3.45;;;;;;;5.40;100.00;98054.59;5153993;27;20138;-68
2022/03/28 05:11:30;;;;;;;5.55;2.97;;;;;;;5.26;100.00;98022.44;5148915;27;20088;-68
2022/03/28 05:14:00;;;;;;;19.40;3.35;;;;;;;5.18;100.00;98007.94;5133224;28;20046;-68
2022/03/28 05:16:26;;;;;;;8.52;2.80;;;;;;;5.08;100.00;97988.72;5132780;28;20055;-68
2022/03/28 05:18:53;;;;;;;13.13;3.03;;;;;;;5.03;100.00;97967.25;5133287;28;20672;-68
2022/03/28 05:21:20;;;;;;;6.95;2.63;;;;;;;5.00;100.00;97966.06;5133684;28;20059;-69
2022/03/28 05:23:46;;;;;;;5.53;2.60;;;;;;;5.03;100.00;97959.91;5133050;27;20069;-68
2022/03/28 05:26:12;;;;;;;5.70;2.72;;;;;;;5.13;100.00;97951.19;5133198;28;20138;-68
2022/03/28 05:28:39;;;;;;;10.88;2.80;;;;;;;5.22;100.00;97947.44;5132986;28;20047;-68
2022/03/28 05:31:05;;;;;;;14.98;3.13;;;;;;;5.26;100.00;97945.56;5133981;27;20066;-62
2022/03/28 05:33:32;;;;;;;22.67;3.92;;;;;;;5.45;100.00;97926.53;5133762;27;20054;-73
2022/03/28 05:35:58;;;;;;;8.48;3.13;;;;;;;5.87;100.00;97947.47;5133284;27;20457;-71
2022/03/28 05:38:26;;;;;;;13.73;3.35;;;;;;;6.07;100.00;97935.38;5132968;27;20399;-71
2022/03/28 05:40:52;;;;;;;7.70;2.70;;;;;;;6.27;100.00;97946.19;5132684;27;20103;-69
2022/03/28 05:43:18;;;;;;;9.98;3.13;;;;;;;6.50;100.00;97941.47;5134157;27;20069;-61
2022/03/28 05:45:45;;;;;;;13.38;3.63;;;;;;;6.90;100.00;97961.88;5132767;27;20054;-68
2022/03/28 05:48:11;;;;;;;10.32;4.25;;;;;;;7.22;100.00;97956.78;5132969;28;20079;-66
2022/03/28 05:50:37;;;;;;;7.85;3.47;;;;;;;7.43;100.00;97982.72;5132413;27;20142;-63
2022/03/28 05:53:04;;;;;;;11.65;3.38;;;;;;;7.71;100.00;97976.81;5141251;27;20078;-68
2022/03/28 05:55:31;;;;;;;8.85;3.60;;;;;;;7.94;100.00;97996.50;5132740;27;20057;-65
2022/03/28 05:57:58;;;;;;;12.63;4.05;;;;;;;8.09;100.00;98005.59;5132627;27;20505;-64
2022/03/28 06:00:25;;;;;;;6.97;3.28;;;;;;;8.19;100.00;98004.13;5136669;27;20082;-68
2022/03/28 06:02:52;;;;;;;14.15;4.28;;;;;;;8.47;100.00;97993.47;5152961;27;20046;-67
2022/03/28 06:05:18;;;;;;;11.52;4.03;;;;;;;8.65;100.00;98009.97;5153020;27;20482;-66
2022/03/28 06:07:44;;;;;;;12.50;3.75;;;;;;;8.32;100.00;97999.94;5153154;27;20098;-65
2022/03/28 06:10:11;;;;;;;7.65;3.75;;;;;;;7.89;100.00;97988.66;5151163;27;20050;-65
2022/03/28 06:12:38;;;;;;;6.97;3.42;;;;;;;7.47;100.00;97957.06;5133352;27;20115;-67
2022/03/28 06:15:05;;;;;;;20.25;3.53;;;;;;;7.24;100.00;97916.31;5132290;27;20099;-65
2022/03/28 06:17:31;;;;;;;11.55;3.58;;;;;;;7.10;100.00;97890.84;5132128;27;20425;-67
2022/03/28 06:19:57;;;;;;;13.45;4.00;;;;;;;7.16;100.00;97875.72;5132089;27;20046;-62
2022/03/28 06:22:24;;;;;;;9.38;3.95;;;;;;;7.81;100.00;97856.06;5152147;27;20051;-63
2022/03/28 06:24:50;;;;;;;10.48;3.60;;;;;;;7.88;100.00;97863.53;5153023;27;20057;-62
2022/03/28 06:27:16;;;;;;;11.50;3.80;;;;;;;7.88;100.00;97858.84;5152950;27;20057;-61
2022/03/28 06:29:43;;;;;;;10.93;4.20;;;;;;;7.74;100.00;97840.44;5153052;27;20087;-65
2022/03/28 06:32:09;;;;;;;10.85;3.70;;;;;;;7.69;100.00;97818.94;5135164;27;20047;-64
2022/03/28 06:34:35;;;;;;;10.50;3.42;;;;;;;7.78;100.00;97813.94;5132162;28;20497;-60
2022/03/28 06:37:02;;;;;;;10.68;3.58;;;;;;;8.01;100.00;97799.28;5132426;28;20076;-63
2022/03/28 06:39:28;;;;;;;12.23;4.75;;;;;;;8.16;100.00;97791.94;5131956;27;20473;-61
2022/03/28 06:41:54;;;;;;;11.68;4.45;;;;;;;8.40;100.00;97788.59;5146880;27;20047;-61
2022/03/28 06:44:21;;;;;;;12.02;3.72;;;;;;;9.16;100.00;97787.66;5152738;27;20049;-62
2022/03/28 06:46:47;;;;;;;9.38;3.80;;;;;;;10.63;100.00;97825.81;5150055;27;20107;-61
2022/03/28 06:49:14;;;;;;;9.15;4.07;;;;;;;11.74;100.00;97872.59;5143919;27;20054;-60
2022/03/28 06:51:40;;;;;;;14.45;4.15;;;;;;;12.48;100.00;97903.34;5147204;27;20050;-61
2022/03/28 06:54:08;;;;;;;10.40;4.57;;;;;;;12.92;100.00;97926.44;5152546;27;20054;-58
2022/03/28 06:56:35;;;;;;;14.52;4.22;;;;;;;13.62;100.00;97937.00;5152536;27;20098;-61
2022/03/28 06:59:02;;;;;;;9.30;3.83;;;;;;;13.82;100.00;97948.13;5147976;27;20116;-59
2022/03/28 07:01:28;;;;;;;11.07;4.65;;;;;;;14.04;100.00;97950.56;5131759;28;20078;-67
2022/03/28 07:03:55;;;;;;;11.13;4.20;;;;;;;13.96;100.00;97958.16;5135215;27;20051;-64
2022/03/28 07:06:21;;;;;;;11.65;4.20;;;;;;;14.00;100.00;97936.06;5152406;27;20051;-65
2022/03/28 07:08:48;;;;;;;8.98;4.32;;;;;;;14.26;100.00;97938.00;5152398;27;20162;-65
2022/03/28 07:11:14;;;;;;;13.95;4.28;;;;;;;14.09;100.00;97930.78;5150757;27;20061;-67
2022/03/28 07:13:41;;;;;;;12.52;4.43;;;;;;;14.11;100.00;97911.88;5151277;27;20042;-66
2022/03/28 07:16:07;;;;;;;10.05;4.72;;;;;;;14.24;100.00;97903.78;5152399;27;20046;-61
2022/03/28 07:18:34;;;;;;;16.73;6.00;;;;;;;14.18;100.00;97881.44;5151055;27;20051;-61
2022/03/28 07:21:00;;;;;;;14.73;5.40;;;;;;;14.16;100.00;97877.53;5150665;27;20077;-64
2022/03/28 07:23:27;;;;;;;22.65;4.90;;;;;;;14.10;100.00;97880.00;5152347;27;20050;-61
2022/03/28 07:25:53;;;;;;;10.00;4.80;;;;;;;13.97;100.00;97876.28;5152194;27;20047;-61
2022/03/28 07:28:19;;;;;;;21.45;5.30;;;;;;;13.92;100.00;97874.00;5152078;27;20053;-68
2022/03/28 07:30:46;;;;;;;11.95;6.25;;;;;;;14.22;100.00;97871.13;5136298;27;20058;-62
2022/03/28 07:33:12;;;;;;;10.65;4.57;;;;;;;14.35;100.00;97874.03;5131232;27;20047;-64
2022/03/28 07:35:39;;;;;;;17.17;4.72;;;;;;;14.28;100.00;97877.69;5131416;28;20127;-62
2022/03/28 07:38:08;;;;;;;16.58;5.53;;;;;;;14.46;100.00;97876.59;5131363;27;20058;-63
2022/03/28 07:40:34;;;;;;;11.93;4.90;;;;;;;14.67;100.00;97880.97;5132183;27;20136;-62
2022/03/28 07:43:01;;;;;;;18.20;5.28;;;;;;;14.76;100.00;97881.19;5131564;27;20120;-60
2022/03/28 07:45:27;;;;;;;7.65;4.43;;;;;;;14.88;100.00;97888.84;5131226;28;20047;-63
2022/03/28 07:47:54;;;;;;;11.70;5.40;;;;;;;14.96;100.00;97878.41;5136151;27;20072;-64
2022/03/28 07:50:21;;;;;;;14.38;5.40;;;;;;;15.34;100.00;97878.03;5151875;27;20054;-64
2022/03/28 07:52:50;;;;;;;18.13;5.57;;;;;;;15.77;100.00;97884.19;5152089;27;20046;-62
2022/03/28 07:55:17;;;;;;;18.60;4.95;;;;;;;15.84;100.00;97893.50;5151281;27;20047;-67
2022/03/28 07:57:44;;;;;;;12.32;5.88;;;;;;;15.73;100.00;97885.47;5147590;27;20047;-64
2022/03/28 08:00:14;;;;;;;16.60;6.15;;;;;;;15.50;100.00;97870.56;5130857;27;20047;-67
2022/03/28 08:02:40;;;;;;;27.88;6.18;;;;;;;15.84;100.00;97874.16;5130636;27;20053;-66
2022/03/28 08:05:09;;;;;;;12.32;4.47;;;;;;;16.20;100.00;97891.44;5130510;27;20047;-64
2022/03/28 08:07:35;;;;;;;16.25;6.20;;;;;;;16.42;100.00;97874.28;5144596;27;20054;-62
2022/03/28 08:10:02;;;;;;;12.93;5.00;;;;;;;16.66;100.00;97870.06;5151528;27;20416;-64
2022/03/28 08:12:29;;;;;;;16.45;5.35;;;;;;;16.91;100.00;97876.94;5151576;27;20051;-63
2022/03/28 08:14:56;;;;;;;14.90;6.13;;;;;;;16.99;100.00;97869.97;5151334;27;20057;-66
2022/03/28 08:17:22;;;;;;;20.55;5.97;;;;;;;16.75;100.00;97861.16;5136636;27;20051;-66
2022/03/28 08:19:49;;;;;;;11.32;5.80;;;;;;;16.61;100.00;97867.84;5130451;27;20107;-62
2022/03/28 08:22:17;;;;;;;13.52;5.20;;;;;;;16.66;100.00;97836.06;5130647;28;20073;-62
2022/03/28 08:24:44;;;;;;;15.25;5.53;;;;;;;16.69;100.00;97837.97;5130488;27;20058;-71
2022/03/28 08:27:10;;;;;;;13.60;5.22;;;;;;;16.47;100.00;97848.88;5141690;27;20065;-62
2022/03/28 08:29:37;;;;;;;13.93;5.90;;;;;;;16.59;100.00;97828.75;5153050;27;20098;-62
2022/03/28 08:32:04;;;;;;;25.77;6.85;;;;;;;16.31;100.00;97837.84;5154580;27;20054;-63
2022/03/28 08:34:30;;;;;;;44.00;6.43;;;;;;;16.73;100.00;97827.59;5151064;27;20053;-62
2022/03/28 08:36:57;;;;;;;11.20;6.07;;;;;;;17.12;100.00;97825.69;5154081;27;20493;-62
2022/03/28 08:39:23;;;;;;;15.15;5.20;;;;;;;17.04;100.00;97829.91;5154463;27;20085;-62
2022/03/28 08:41:49;;;;;;;14.85;5.40;;;;;;;17.17;100.00;97825.94;5154557;27;20050;-62
2022/03/28 08:44:16;;;;;;;11.13;4.85;;;;;;;17.45;100.00;97826.28;5147058;27;20047;-62
2022/03/28 08:46:48;;;;;;;20.48;5.80;;;;;;;17.37;100.00;97838.81;5133505;28;20503;-62
2022/03/28 08:49:14;;;;;;;11.80;5.80;;;;;;;17.30;100.00;97816.88;5133786;28;20054;-63
2022/03/28 08:51:40;;;;;;;19.83;5.72;;;;;;;17.18;100.00;97808.09;5133954;28;20054;-63
2022/03/28 08:54:07;;;;;;;16.42;5.95;;;;;;;17.29;100.00;97804.97;5138932;27;20047;-63
2022/03/28 08:56:33;;;;;;;13.98;5.07;;;;;;;17.27;100.00;97803.91;5154352;27;20050;-63
2022/03/28 08:58:59;;;;;;;14.38;6.65;;;;;;;17.24;100.00;97800.00;5154160;27;20057;-64
2022/03/28 09:01:26;;;;;;;16.67;5.47;;;;;;;17.22;100.00;97783.06;5154128;27;20051;-63
2022/03/28 09:03:53;;;;;;;14.38;7.00;;;;;;;17.34;100.00;97787.81;5153932;27;20046;-63
2022/03/28 09:06:37;;;;;;;32.10;6.72;;;;;;;17.28;100.00;97786.06;5154089;27;20142;-63
2022/03/28 09:09:14;;;;;;;18.95;6.28;;;;;;;17.31;100.00;97780.41;5154084;27;20638;-63
2022/03/28 09:11:42;;;;;;;18.75;4.85;;;;;;;17.14;100.00;97770.66;5154203;27;20058;-63
2022/03/28 09:14:11;;;;;;;13.90;5.10;;;;;;;17.19;100.00;97770.09;5150889;27;20047;-62
2022/03/28 09:16:37;;;;;;;13.52;6.30;;;;;;;17.39;100.00;97767.09;5143103;27;20046;-62
2022/03/28 09:19:09;;;;;;;13.80;6.80;;;;;;;17.74;100.00;97775.47;5153908;27;20046;-62
2022/03/28 09:21:36;;;;;;;8.23;4.05;;;;;;;17.90;100.00;97763.50;5140989;27;20051;-62
2022/03/28 09:24:08;;;;;;;13.18;5.40;;;;;;;17.93;100.00;97765.38;5133451;27;20043;-62
2022/03/28 09:26:34;;;;;;;12.93;6.18;;;;;;;17.74;100.00;97773.47;5133012;28;20055;-61
2022/03/28 09:29:01;;;;;;;12.35;5.15;;;;;;;17.78;100.00;97768.63;5133190;28;20067;-61
2022/03/28 09:31:30;;;;;;;11.13;6.20;;;;;;;17.69;100.00;97760.16;5133069;27;20058;-63
2022/03/28 09:34:03;;;;;;;32.67;6.72;;;;;;;17.66;100.00;97755.56;5140395;27;20053;-63
2022/03/28 09:36:49;;;;;;;15.75;7.65;;;;;;;17.53;100.00;97763.88;5142751;27;20050;-63
2022/03/28 09:39:20;;;;;;;12.93;6.20;;;;;;;17.45;100.00;97753.47;5133883;27;20092;-63
2022/03/28 09:41:57;;;;;;;10.65;4.15;;;;;;;17.41;100.00;97748.03;5145127;27;20054;-63
2022/03/28 09:44:33;;;;;;;17.08;5.20;;;;;;;17.58;100.00;97749.44;5132816;27;20505;-63
2022/03/28 09:47:05;;;;;;;12.63;4.35;;;;;;;17.63;100.00;97748.13;5133119;28;20054;-63
2022/03/28 09:49:32;;;;;;;12.98;5.85;;;;;;;17.53;100.00;97741.72;5142887;27;20051;-63
2022/03/28 09:52:07;;;;;;;11.88;5.82;;;;;;;17.45;100.00;97732.06;5153441;27;20043;-63
2022/03/28 09:54:44;;;;;;;10.25;5.35;;;;;;;17.38;100.00;97724.78;5153177;27;20043;-63
2022/03/28 09:57:12;;;;;;;10.55;5.63;;;;;;;17.39;100.00;97726.34;5144081;27;20501;-64
2022/03/28 09:59:39;;;;;;;12.15;5.63;;;;;;;17.38;100.00;97718.47;5132460;27;20051;-63
2022/03/28 10:02:19;;;;;;;14.02;5.75;;;;;;;17.26;100.00;97713.69;5132337;27;20047;-63
2022/03/28 10:04:48;;;;;;;15.23;5.82;;;;;;;17.15;100.00;97705.75;5132165;28;20417;-63
2022/03/28 10:07:15;;;;;;;19.88;5.60;;;;;;;17.12;100.00;97690.00;5140771;27;20082;-63
2022/03/28 10:09:42;;;;;;;31.38;7.32;;;;;;;17.08;100.00;97692.13;5152949;27;20058;-63
2022/03/28 10:12:09;;;;;;;11.07;5.40;;;;;;;17.15;100.00;97689.13;5153130;27;20493;-63
2022/03/28 10:14:35;;;;;;;13.48;4.13;;;;;;;17.30;100.00;97689.47;5152758;27;20047;-63
2022/03/28 10:17:03;;;;;;;17.80;6.13;;;;;;;17.17;100.00;97673.63;5145668;27;20136;-63
2022/03/28 10:19:31;;;;;;;13.50;5.25;;;;;;;17.15;100.00;97678.06;5132095;27;20050;-64
2022/03/28 10:21:58;;;;;;;14.05;5.32;;;;;;;17.35;100.00;97675.81;5132313;28;20137;-61
2022/03/28 10:24:29;;;;;;;11.73;5.25;;;;;;;17.40;100.00;97677.25;5131612;28;20058;-62
2022/03/28 10:26:57;;;;;;;31.30;6.00;;;;;;;17.49;100.00;97671.78;5136983;27;20104;-62
2022/03/28 10:29:32;;;;;;;14.02;5.30;;;;;;;17.35;100.00;97669.50;5152448;27;20046;-62
2022/03/28 10:32:01;;;;;;;9.68;5.03;;;;;;;17.38;100.00;97672.13;5145472;27;20057;-63
2022/03/28 10:34:42;;;;;;;13.70;4.97;;;;;;;17.49;100.00;97677.31;5137093;27;20501;-62
2022/03/28 10:37:30;;;;;;;12.25;4.80;;;;;;;17.55;100.00;97658.13;5142828;27;20054;-62
2022/03/28 10:40:35;;;;;;;15.95;5.30;;;;;;;17.62;100.00;97647.56;5149110;27;20047;-62
2022/03/28 10:43:06;;;;;;;16.63;5.65;;;;;;;17.76;100.00;97645.53;5139794;27;20051;-61
2022/03/28 10:45:34;;;;;;;9.95;4.03;;;;;;;18.13;100.00;97654.94;5134146;27;20466;-61
2022/03/28 10:48:01;;;;;;;18.70;5.13;;;;;;;17.79;100.00;97645.44;5145276;27;20042;-62
2022/03/28 10:50:29;;;;;;;16.25;6.43;;;;;;;17.59;100.00;97629.09;5151825;27;20062;-63
2022/03/28 10:53:11;;;;;;;13.80;5.28;;;;;;;17.53;100.00;97627.34;5152364;27;20512;-63
2022/03/28 10:55:43;;;;;;;14.80;5.03;;;;;;;17.58;100.00;97626.75;5152163;27;20524;-64
2022/03/28 10:58:13;;;;;;;15.40;4.80;;;;;;;17.68;100.00;97614.53;5136700;27;20051;-65
2022/03/28 11:00:59;;;;;;;21.25;6.03;;;;;;;17.79;100.00;97606.66;5132077;27;20047;-66
2022/03/28 11:03:36;;;;;;;21.05;6.93;;;;;;;17.79;100.00;97589.22;5131436;28;20054;-62
2022/03/28 11:06:02;;;;;;;10.65;5.15;;;;;;;17.72;100.00;97586.69;5131645;27;20569;-65
2022/03/28 11:08:33;;;;;;;22.90;5.47;;;;;;;17.52;100.00;97576.69;5134597;27;20057;-66
2022/03/28 11:11:17;;;;;;;12.80;5.25;;;;;;;17.40;100.00;97566.44;5152229;27;20535;-64
2022/03/28 11:13:44;;;;;;;11.10;3.42;;;;;;;17.42;100.00;97553.66;5148678;27;20448;-65
2022/03/28 11:16:19;;;;;;;13.75;4.53;;;;;;;17.48;100.00;97548.34;5145279;27;20054;-64
2022/03/28 11:19:05;;;;;;;16.17;4.70;;;;;;;16.91;100.00;97530.94;5130637;27;20051;-65
2022/03/28 11:21:31;;;;;;;14.30;4.78;;;;;;;16.35;100.00;97524.00;5131089;28;20069;-64
2022/03/28 11:24:10;;;;;;;12.20;4.75;;;;;;;16.10;100.00;97490.84;5131425;28;20057;-65
2022/03/28 11:26:38;;;;;;;31.40;4.28;;;;;;;15.99;100.00;97466.28;5135682;27;20054;-71
2022/03/28 11:29:06;;;;;;;11.73;3.83;;;;;;;15.74;100.00;97483.66;5151481;27;20505;-63